sensor_id;sensor_type;location;lat;lon;timestamp;temperature;humidity
21121;DHT22;12519;43.318;21.898;2023-07-31T00:01:42;24.3;98.0
21121;DHT22;12519;43.318;21.898;2023-07-31T00:06:19;24.4;98.0
21121;DHT22;12519;43.318;21.898;2023-07-31T00:10:55;24.4;98.0
21121;DHT22;12519;43.318;21.898;2023-07-31T00:15:31;24.4;98.0
21121;DHT22;12519;43.318;21.898;2023-07-31T00:20:08;24.4;98.0
21121;DHT22;12519;43.318;21.898;2023-07-31T00:24:46;24.4;98.0
21121;DHT22;12519;43.318;21.898;2023-07-31T00:29:23;24.4;98.0
21121;DHT22;12519;43.318;21.898;2023-07-31T00:33:59;24.4;98.0
21121;DHT22;12519;43.318;21.898;2023-07-31T00:38:35;24.4;98.0
21121;DHT22;12519;43.318;21.898;2023-07-31T00:43:12;24.4;98.0
21121;DHT22;12519;43.318;21.898;2023-07-31T00:47:48;24.3;98.0
21121;DHT22;12519;43.318;21.898;2023-07-31T00:52:26;24.3;98.0
21121;DHT22;12519;43.318;21.898;2023-07-31T00:57:03;24.2;98.0
21121;DHT22;12519;43.318;21.898;2023-07-31T01:01:42;24.2;98.0
21121;DHT22;12519;43.318;21.898;2023-07-31T01:06:26;24.0;99.0
21121;DHT22;12519;43.318;21.898;2023-07-31T01:11:48;24.0;99.0
21121;DHT22;12519;43.318;21.898;2023-07-31T01:16:42;23.9;99.0
21121;DHT22;12519;43.318;21.898;2023-07-31T01:21:30;23.9;99.0
21121;DHT22;12519;43.318;21.898;2023-07-31T01:27:59;24.0;100.0
21121;DHT22;12519;43.318;21.898;2023-07-31T01:33:01;24.0;100.0
21121;DHT22;12519;43.318;21.898;2023-07-31T01:37:40;24.0;100.0
21121;DHT22;12519;43.318;21.898;2023-07-31T01:42:17;24.0;100.0
21121;DHT22;12519;43.318;21.898;2023-07-31T01:46:53;23.9;100.0
21121;DHT22;12519;43.318;21.898;2023-07-31T01:51:30;23.9;100.0
21121;DHT22;12519;43.318;21.898;2023-07-31T01:56:06;23.8;100.0
21121;DHT22;12519;43.318;21.898;2023-07-31T02:00:43;23.8;100.0
21121;DHT22;12519;43.318;21.898;2023-07-31T02:05:20;23.9;100.0
21121;DHT22;12519;43.318;21.898;2023-07-31T02:09:57;23.9;100.0
21121;DHT22;12519;43.318;21.898;2023-07-31T02:14:33;23.9;100.0
21121;DHT22;12519;43.318;21.898;2023-07-31T02:19:10;24.0;100.0
21121;DHT22;12519;43.318;21.898;2023-07-31T02:23:47;24.0;100.0
21121;DHT22;12519;43.318;21.898;2023-07-31T02:28:24;24.0;100.0
21121;DHT22;12519;43.318;21.898;2023-07-31T02:33:01;24.0;100.0
21121;DHT22;12519;43.318;21.898;2023-07-31T02:37:40;23.9;100.0
21121;DHT22;12519;43.318;21.898;2023-07-31T02:42:17;23.9;100.0
21121;DHT22;12519;43.318;21.898;2023-07-31T02:46:54;23.9;100.0
21121;DHT22;12519;43.318;21.898;2023-07-31T02:51:30;23.9;100.0
21121;DHT22;12519;43.318;21.898;2023-07-31T02:56:07;23.9;100.0
21121;DHT22;12519;43.318;21.898;2023-07-31T03:00:43;23.9;100.0
21121;DHT22;12519;43.318;21.898;2023-07-31T03:05:21;23.8;100.0
21121;DHT22;12519;43.318;21.898;2023-07-31T03:09:57;23.8;100.0
21121;DHT22;12519;43.318;21.898;2023-07-31T03:14:33;23.8;100.0
21121;DHT22;12519;43.318;21.898;2023-07-31T03:19:10;23.8;100.0
21121;DHT22;12519;43.318;21.898;2023-07-31T03:23:46;23.8;100.0
21121;DHT22;12519;43.318;21.898;2023-07-31T03:28:23;23.8;100.0
21121;DHT22;12519;43.318;21.898;2023-07-31T03:33:00;23.8;100.0
21121;DHT22;12519;43.318;21.898;2023-07-31T03:37:37;23.9;100.0
21121;DHT22;12519;43.318;21.898;2023-07-31T03:42:13;23.9;100.0
21121;DHT22;12519;43.318;21.898;2023-07-31T03:46:50;23.8;100.0
21121;DHT22;12519;43.318;21.898;2023-07-31T03:51:27;23.8;100.0
21121;DHT22;12519;43.318;21.898;2023-07-31T03:56:04;23.6;100.0
21121;DHT22;12519;43.318;21.898;2023-07-31T04:00:41;23.6;100.0
21121;DHT22;12519;43.318;21.898;2023-07-31T04:05:18;23.6;100.0
21121;DHT22;12519;43.318;21.898;2023-07-31T04:09:56;23.6;100.0
21121;DHT22;12519;43.318;21.898;2023-07-31T04:14:33;23.6;100.0
21121;DHT22;12519;43.318;21.898;2023-07-31T04:19:10;23.5;100.0
21121;DHT22;12519;43.318;21.898;2023-07-31T04:23:46;23.5;100.0
21121;DHT22;12519;43.318;21.898;2023-07-31T04:28:23;23.4;100.0
21121;DHT22;12519;43.318;21.898;2023-07-31T04:32:59;23.4;100.0
21121;DHT22;12519;43.318;21.898;2023-07-31T04:37:35;23.4;100.0
21121;DHT22;12519;43.318;21.898;2023-07-31T04:42:11;23.4;100.0
21121;DHT22;12519;43.318;21.898;2023-07-31T04:46:48;23.4;100.0
21121;DHT22;12519;43.318;21.898;2023-07-31T04:51:25;23.4;100.0
21121;DHT22;12519;43.318;21.898;2023-07-31T04:56:02;23.5;100.0
21121;DHT22;12519;43.318;21.898;2023-07-31T05:00:40;23.5;100.0
21121;DHT22;12519;43.318;21.898;2023-07-31T05:05:17;23.6;100.0
21121;DHT22;12519;43.318;21.898;2023-07-31T05:09:53;23.6;100.0
21121;DHT22;12519;43.318;21.898;2023-07-31T05:14:30;23.6;100.0
21121;DHT22;12519;43.318;21.898;2023-07-31T05:19:06;23.8;100.0
21121;DHT22;12519;43.318;21.898;2023-07-31T05:23:43;23.8;100.0
21121;DHT22;12519;43.318;21.898;2023-07-31T05:28:21;23.8;99.0
21121;DHT22;12519;43.318;21.898;2023-07-31T05:32:57;23.8;99.0
21121;DHT22;12519;43.318;21.898;2023-07-31T05:37:33;23.8;99.0
21121;DHT22;12519;43.318;21.898;2023-07-31T05:42:10;23.8;99.0
21121;DHT22;12519;43.318;21.898;2023-07-31T05:46:46;24.0;98.0
21121;DHT22;12519;43.318;21.898;2023-07-31T05:51:22;24.0;98.0
21121;DHT22;12519;43.318;21.898;2023-07-31T05:55:58;24.1;97.0
21121;DHT22;12519;43.318;21.898;2023-07-31T06:00:35;24.1;97.0
21121;DHT22;12519;43.318;21.898;2023-07-31T06:05:12;24.1;97.0
21121;DHT22;12519;43.318;21.898;2023-07-31T06:09:50;24.3;97.0
21121;DHT22;12519;43.318;21.898;2023-07-31T06:14:26;24.3;97.0
21121;DHT22;12519;43.318;21.898;2023-07-31T06:19:03;24.5;96.0
21121;DHT22;12519;43.318;21.898;2023-07-31T06:23:40;24.5;96.0
21121;DHT22;12519;43.318;21.898;2023-07-31T06:28:16;24.8;96.0
21121;DHT22;12519;43.318;21.898;2023-07-31T06:32:54;24.8;96.0
21121;DHT22;12519;43.318;21.898;2023-07-31T06:37:30;25.0;95.0
21121;DHT22;12519;43.318;21.898;2023-07-31T06:42:07;25.0;95.0
21121;DHT22;12519;43.318;21.898;2023-07-31T06:46:43;25.1;94.0
21121;DHT22;12519;43.318;21.898;2023-07-31T06:51:20;25.1;94.0
21121;DHT22;12519;43.318;21.898;2023-07-31T06:55:57;25.2;94.0
21121;DHT22;12519;43.318;21.898;2023-07-31T07:00:33;25.2;94.0
21121;DHT22;12519;43.318;21.898;2023-07-31T07:05:10;25.2;94.0
21121;DHT22;12519;43.318;21.898;2023-07-31T07:09:46;25.2;94.0
21121;DHT22;12519;43.318;21.898;2023-07-31T07:14:23;25.2;94.0
21121;DHT22;12519;43.318;21.898;2023-07-31T07:18:59;25.3;94.0
21121;DHT22;12519;43.318;21.898;2023-07-31T07:23:36;25.3;94.0
21121;DHT22;12519;43.318;21.898;2023-07-31T07:28:12;25.4;93.0
21121;DHT22;12519;43.318;21.898;2023-07-31T07:32:50;25.4;93.0
21121;DHT22;12519;43.318;21.898;2023-07-31T07:37:27;25.4;92.0
21121;DHT22;12519;43.318;21.898;2023-07-31T07:42:03;25.4;92.0
21121;DHT22;12519;43.318;21.898;2023-07-31T07:46:41;25.3;92.0
21121;DHT22;12519;43.318;21.898;2023-07-31T07:51:19;25.3;92.0
21121;DHT22;12519;43.318;21.898;2023-07-31T07:55:56;25.2;92.0
21121;DHT22;12519;43.318;21.898;2023-07-31T08:00:32;25.2;92.0
21121;DHT22;12519;43.318;21.898;2023-07-31T08:05:09;25.2;92.0
21121;DHT22;12519;43.318;21.898;2023-07-31T08:09:45;25.4;92.0
21121;DHT22;12519;43.318;21.898;2023-07-31T08:14:21;25.4;92.0
21121;DHT22;12519;43.318;21.898;2023-07-31T08:18:58;25.7;91.0
21121;DHT22;12519;43.318;21.898;2023-07-31T08:23:34;25.7;91.0
21121;DHT22;12519;43.318;21.898;2023-07-31T08:28:10;26.0;90.0
21121;DHT22;12519;43.318;21.898;2023-07-31T08:32:47;26.0;90.0
21121;DHT22;12519;43.318;21.898;2023-07-31T08:37:24;26.4;88.0
21121;DHT22;12519;43.318;21.898;2023-07-31T08:42:01;26.4;88.0
21121;DHT22;12519;43.318;21.898;2023-07-31T08:46:39;26.6;88.0
21121;DHT22;12519;43.318;21.898;2023-07-31T08:51:19;26.6;88.0
21121;DHT22;12519;43.318;21.898;2023-07-31T08:55:58;26.7;88.0
21121;DHT22;12519;43.318;21.898;2023-07-31T09:00:39;26.7;88.0
21121;DHT22;12519;43.318;21.898;2023-07-31T09:05:23;26.7;88.0
21121;DHT22;12519;43.318;21.898;2023-07-31T09:10:07;27.0;86.0
21121;DHT22;12519;43.318;21.898;2023-07-31T09:14:46;27.0;86.0
21121;DHT22;12519;43.318;21.898;2023-07-31T09:19:25;27.2;85.0
21121;DHT22;12519;43.318;21.898;2023-07-31T09:24:24;27.2;85.0
21121;DHT22;12519;43.318;21.898;2023-07-31T09:29:07;27.4;83.0
21121;DHT22;12519;43.318;21.898;2023-07-31T09:33:55;27.4;83.0
21121;DHT22;12519;43.318;21.898;2023-07-31T09:38:32;27.7;81.0
21121;DHT22;12519;43.318;21.898;2023-07-31T09:43:09;27.7;81.0
21121;DHT22;12519;43.318;21.898;2023-07-31T09:47:52;27.6;80.0
21121;DHT22;12519;43.318;21.898;2023-07-31T09:52:30;27.6;80.0
21121;DHT22;12519;43.318;21.898;2023-07-31T09:57:07;27.5;80.0
21121;DHT22;12519;43.318;21.898;2023-07-31T10:01:49;27.5;80.0
21121;DHT22;12519;43.318;21.898;2023-07-31T10:06:33;27.8;79.0
21121;DHT22;12519;43.318;21.898;2023-07-31T10:11:20;27.8;79.0
21121;DHT22;12519;43.318;21.898;2023-07-31T10:16:14;28.0;78.0
21121;DHT22;12519;43.318;21.898;2023-07-31T10:20:55;28.0;78.0
21121;DHT22;12519;43.318;21.898;2023-07-31T10:25:35;28.0;78.0
21121;DHT22;12519;43.318;21.898;2023-07-31T10:30:19;27.8;78.0
21121;DHT22;12519;43.318;21.898;2023-07-31T10:35:10;27.8;78.0
21121;DHT22;12519;43.318;21.898;2023-07-31T10:39:58;27.6;78.0
21121;DHT22;12519;43.318;21.898;2023-07-31T10:44:46;27.6;78.0
21121;DHT22;12519;43.318;21.898;2023-07-31T10:49:23;27.6;78.0
21121;DHT22;12519;43.318;21.898;2023-07-31T10:54:10;27.6;78.0
21121;DHT22;12519;43.318;21.898;2023-07-31T10:59:00;27.6;77.0
21121;DHT22;12519;43.318;21.898;2023-07-31T11:03:41;27.6;77.0
21121;DHT22;12519;43.318;21.898;2023-07-31T11:08:25;27.8;76.0
21121;DHT22;12519;43.318;21.898;2023-07-31T11:13:07;27.8;76.0
21121;DHT22;12519;43.318;21.898;2023-07-31T11:17:43;27.9;75.0
21121;DHT22;12519;43.318;21.898;2023-07-31T11:22:20;27.9;75.0
21121;DHT22;12519;43.318;21.898;2023-07-31T11:26:57;28.0;75.0
21121;DHT22;12519;43.318;21.898;2023-07-31T11:31:41;28.0;75.0
21121;DHT22;12519;43.318;21.898;2023-07-31T11:36:20;28.0;75.0
21121;DHT22;12519;43.318;21.898;2023-07-31T11:40:59;28.0;75.0
21121;DHT22;12519;43.318;21.898;2023-07-31T11:45:40;28.0;75.0
21121;DHT22;12519;43.318;21.898;2023-07-31T11:50:23;28.0;75.0
21121;DHT22;12519;43.318;21.898;2023-07-31T11:55:01;28.0;75.0
21121;DHT22;12519;43.318;21.898;2023-07-31T11:59:44;27.9;75.0
21121;DHT22;12519;43.318;21.898;2023-07-31T12:04:23;27.9;75.0
21121;DHT22;12519;43.318;21.898;2023-07-31T12:09:03;28.0;75.0
21121;DHT22;12519;43.318;21.898;2023-07-31T12:13:41;28.0;75.0
21121;DHT22;12519;43.318;21.898;2023-07-31T12:18:19;28.2;75.0
21121;DHT22;12519;43.318;21.898;2023-07-31T12:22:57;28.2;75.0
21121;DHT22;12519;43.318;21.898;2023-07-31T12:27:34;28.2;75.0
21121;DHT22;12519;43.318;21.898;2023-07-31T12:32:20;28.2;75.0
21121;DHT22;12519;43.318;21.898;2023-07-31T12:37:00;28.1;74.0
21121;DHT22;12519;43.318;21.898;2023-07-31T12:41:37;28.1;74.0
21121;DHT22;12519;43.318;21.898;2023-07-31T12:46:14;28.1;74.0
21121;DHT22;12519;43.318;21.898;2023-07-31T12:50:51;28.1;74.0
21121;DHT22;12519;43.318;21.898;2023-07-31T12:55:28;28.1;74.0
21121;DHT22;12519;43.318;21.898;2023-07-31T13:00:06;28.1;74.0
21121;DHT22;12519;43.318;21.898;2023-07-31T13:04:49;28.1;74.0
21121;DHT22;12519;43.318;21.898;2023-07-31T13:09:26;28.2;73.0
21121;DHT22;12519;43.318;21.898;2023-07-31T13:14:03;28.2;73.0
21121;DHT22;12519;43.318;21.898;2023-07-31T13:18:39;28.3;72.0
21121;DHT22;12519;43.318;21.898;2023-07-31T13:23:16;28.3;72.0
21121;DHT22;12519;43.318;21.898;2023-07-31T13:27:52;28.4;71.0
21121;DHT22;12519;43.318;21.898;2023-07-31T13:32:29;28.4;71.0
21121;DHT22;12519;43.318;21.898;2023-07-31T13:37:05;28.6;71.0
21121;DHT22;12519;43.318;21.898;2023-07-31T13:41:41;28.6;71.0
21121;DHT22;12519;43.318;21.898;2023-07-31T13:46:18;28.6;71.0
21121;DHT22;12519;43.318;21.898;2023-07-31T13:50:54;28.8;70.0
21121;DHT22;12519;43.318;21.898;2023-07-31T13:55:30;28.8;70.0
21121;DHT22;12519;43.318;21.898;2023-07-31T14:00:07;28.9;70.0
21121;DHT22;12519;43.318;21.898;2023-07-31T14:04:50;28.9;70.0
21121;DHT22;12519;43.318;21.898;2023-07-31T14:09:26;28.8;70.0
21121;DHT22;12519;43.318;21.898;2023-07-31T14:14:03;28.8;70.0
21121;DHT22;12519;43.318;21.898;2023-07-31T14:18:39;28.8;70.0
21121;DHT22;12519;43.318;21.898;2023-07-31T14:23:18;28.8;70.0
21121;DHT22;12519;43.318;21.898;2023-07-31T14:27:54;28.6;70.0
21121;DHT22;12519;43.318;21.898;2023-07-31T14:32:31;28.6;70.0
21121;DHT22;12519;43.318;21.898;2023-07-31T14:37:08;28.4;70.0
21121;DHT22;12519;43.318;21.898;2023-07-31T14:41:45;28.4;70.0
21121;DHT22;12519;43.318;21.898;2023-07-31T14:46:22;28.4;70.0
21121;DHT22;12519;43.318;21.898;2023-07-31T14:51:00;28.4;71.0
21121;DHT22;12519;43.318;21.898;2023-07-31T14:55:36;28.4;71.0
21121;DHT22;12519;43.318;21.898;2023-07-31T15:00:13;28.3;71.0
21121;DHT22;12519;43.318;21.898;2023-07-31T15:04:51;28.3;71.0
21121;DHT22;12519;43.318;21.898;2023-07-31T15:09:27;28.3;71.0
21121;DHT22;12519;43.318;21.898;2023-07-31T15:14:04;28.3;71.0
21121;DHT22;12519;43.318;21.898;2023-07-31T15:18:41;28.3;71.0
21121;DHT22;12519;43.318;21.898;2023-07-31T15:23:18;28.3;71.0
21121;DHT22;12519;43.318;21.898;2023-07-31T15:27:55;28.2;71.0
21121;DHT22;12519;43.318;21.898;2023-07-31T15:32:32;28.2;71.0
21121;DHT22;12519;43.318;21.898;2023-07-31T15:37:09;28.1;71.0
21121;DHT22;12519;43.318;21.898;2023-07-31T15:41:46;28.1;71.0
21121;DHT22;12519;43.318;21.898;2023-07-31T15:46:22;28.1;71.0
21121;DHT22;12519;43.318;21.898;2023-07-31T15:50:59;28.0;71.0
21121;DHT22;12519;43.318;21.898;2023-07-31T15:55:36;28.0;71.0
21121;DHT22;12519;43.318;21.898;2023-07-31T16:00:13;27.8;71.0
21121;DHT22;12519;43.318;21.898;2023-07-31T16:04:50;27.8;71.0
21121;DHT22;12519;43.318;21.898;2023-07-31T16:09:27;27.8;71.0
21121;DHT22;12519;43.318;21.898;2023-07-31T16:14:03;27.8;71.0
21121;DHT22;12519;43.318;21.898;2023-07-31T16:18:39;27.7;71.0
21121;DHT22;12519;43.318;21.898;2023-07-31T16:23:16;27.7;71.0
21121;DHT22;12519;43.318;21.898;2023-07-31T16:27:52;27.6;72.0
21121;DHT22;12519;43.318;21.898;2023-07-31T16:32:29;27.6;72.0
21121;DHT22;12519;43.318;21.898;2023-07-31T16:37:06;27.5;72.0
21121;DHT22;12519;43.318;21.898;2023-07-31T16:41:42;27.5;72.0
21121;DHT22;12519;43.318;21.898;2023-07-31T16:46:19;27.5;72.0
21121;DHT22;12519;43.318;21.898;2023-07-31T16:50:56;27.4;73.0
21121;DHT22;12519;43.318;21.898;2023-07-31T16:55:32;27.4;73.0
21121;DHT22;12519;43.318;21.898;2023-07-31T17:00:10;27.3;74.0
21121;DHT22;12519;43.318;21.898;2023-07-31T17:04:50;27.3;74.0
21121;DHT22;12519;43.318;21.898;2023-07-31T17:09:27;27.2;74.0
21121;DHT22;12519;43.318;21.898;2023-07-31T17:14:04;27.2;74.0
21121;DHT22;12519;43.318;21.898;2023-07-31T17:18:41;27.1;75.0
21121;DHT22;12519;43.318;21.898;2023-07-31T17:23:17;27.1;75.0
21121;DHT22;12519;43.318;21.898;2023-07-31T17:27:54;27.0;76.0
21121;DHT22;12519;43.318;21.898;2023-07-31T17:32:30;27.0;76.0
21121;DHT22;12519;43.318;21.898;2023-07-31T17:37:07;26.9;76.0
21121;DHT22;12519;43.318;21.898;2023-07-31T17:41:43;26.9;76.0
21121;DHT22;12519;43.318;21.898;2023-07-31T17:46:20;26.9;76.0
21121;DHT22;12519;43.318;21.898;2023-07-31T17:50:57;26.8;77.0
21121;DHT22;12519;43.318;21.898;2023-07-31T17:55:34;26.8;77.0
21121;DHT22;12519;43.318;21.898;2023-07-31T18:00:11;26.7;77.0
21121;DHT22;12519;43.318;21.898;2023-07-31T18:04:49;26.7;77.0
21121;DHT22;12519;43.318;21.898;2023-07-31T18:09:26;26.7;78.0
21121;DHT22;12519;43.318;21.898;2023-07-31T18:14:03;26.7;78.0
21121;DHT22;12519;43.318;21.898;2023-07-31T18:18:40;26.7;79.0
21121;DHT22;12519;43.318;21.898;2023-07-31T18:23:16;26.7;79.0
21121;DHT22;12519;43.318;21.898;2023-07-31T18:27:53;26.8;79.0
21121;DHT22;12519;43.318;21.898;2023-07-31T18:32:30;26.8;79.0
21121;DHT22;12519;43.318;21.898;2023-07-31T18:37:06;26.8;79.0
21121;DHT22;12519;43.318;21.898;2023-07-31T18:41:43;26.8;79.0
21121;DHT22;12519;43.318;21.898;2023-07-31T18:46:19;26.8;79.0
21121;DHT22;12519;43.318;21.898;2023-07-31T18:50:56;26.7;79.0
21121;DHT22;12519;43.318;21.898;2023-07-31T18:55:32;26.7;79.0
21121;DHT22;12519;43.318;21.898;2023-07-31T19:00:10;26.6;79.0
21121;DHT22;12519;43.318;21.898;2023-07-31T19:04:47;26.6;79.0
21121;DHT22;12519;43.318;21.898;2023-07-31T19:09:27;26.4;79.0
21121;DHT22;12519;43.318;21.898;2023-07-31T19:14:08;26.4;79.0
21121;DHT22;12519;43.318;21.898;2023-07-31T19:18:45;26.2;79.0
21121;DHT22;12519;43.318;21.898;2023-07-31T19:23:21;26.2;79.0
21121;DHT22;12519;43.318;21.898;2023-07-31T19:27:59;25.9;80.0
21121;DHT22;12519;43.318;21.898;2023-07-31T19:32:36;25.9;80.0
21121;DHT22;12519;43.318;21.898;2023-07-31T19:37:13;25.6;80.0
21121;DHT22;12519;43.318;21.898;2023-07-31T19:41:49;25.6;80.0
21121;DHT22;12519;43.318;21.898;2023-07-31T19:46:26;25.6;80.0
21121;DHT22;12519;43.318;21.898;2023-07-31T19:51:03;25.4;80.0
21121;DHT22;12519;43.318;21.898;2023-07-31T19:55:39;25.4;80.0
21121;DHT22;12519;43.318;21.898;2023-07-31T20:00:16;25.1;80.0
21121;DHT22;12519;43.318;21.898;2023-07-31T20:04:53;25.1;80.0
21121;DHT22;12519;43.318;21.898;2023-07-31T20:09:30;25.0;81.0
21121;DHT22;12519;43.318;21.898;2023-07-31T20:14:06;25.0;81.0
21121;DHT22;12519;43.318;21.898;2023-07-31T20:18:45;24.9;81.0
21121;DHT22;12519;43.318;21.898;2023-07-31T20:23:21;24.9;81.0
21121;DHT22;12519;43.318;21.898;2023-07-31T20:27:57;24.8;82.0
21121;DHT22;12519;43.318;21.898;2023-07-31T20:32:34;24.8;82.0
21121;DHT22;12519;43.318;21.898;2023-07-31T20:37:11;24.8;82.0
21121;DHT22;12519;43.318;21.898;2023-07-31T20:41:47;24.8;82.0
21121;DHT22;12519;43.318;21.898;2023-07-31T20:46:24;24.8;82.0
21121;DHT22;12519;43.318;21.898;2023-07-31T20:51:01;25.0;82.0
21121;DHT22;12519;43.318;21.898;2023-07-31T20:55:39;25.0;82.0
21121;DHT22;12519;43.318;21.898;2023-07-31T21:00:16;25.3;82.0
21121;DHT22;12519;43.318;21.898;2023-07-31T21:04:54;25.3;82.0
21121;DHT22;12519;43.318;21.898;2023-07-31T21:09:31;25.5;82.0
21121;DHT22;12519;43.318;21.898;2023-07-31T21:14:09;25.5;82.0
21121;DHT22;12519;43.318;21.898;2023-07-31T21:18:45;25.6;81.0
21121;DHT22;12519;43.318;21.898;2023-07-31T21:23:22;25.6;81.0
21121;DHT22;12519;43.318;21.898;2023-07-31T21:27:58;25.6;81.0
21121;DHT22;12519;43.318;21.898;2023-07-31T21:32:34;25.6;81.0
21121;DHT22;12519;43.318;21.898;2023-07-31T21:37:11;25.6;81.0
21121;DHT22;12519;43.318;21.898;2023-07-31T21:41:47;25.6;81.0
21121;DHT22;12519;43.318;21.898;2023-07-31T21:46:23;25.6;81.0
21121;DHT22;12519;43.318;21.898;2023-07-31T21:51:00;25.6;81.0
21121;DHT22;12519;43.318;21.898;2023-07-31T21:55:36;25.6;81.0
21121;DHT22;12519;43.318;21.898;2023-07-31T22:00:13;25.5;81.0
21121;DHT22;12519;43.318;21.898;2023-07-31T22:04:50;25.5;81.0
21121;DHT22;12519;43.318;21.898;2023-07-31T22:09:27;25.2;82.0
21121;DHT22;12519;43.318;21.898;2023-07-31T22:14:04;25.2;82.0
21121;DHT22;12519;43.318;21.898;2023-07-31T22:18:40;25.0;82.0
21121;DHT22;12519;43.318;21.898;2023-07-31T22:23:17;25.0;82.0
21121;DHT22;12519;43.318;21.898;2023-07-31T22:27:55;25.1;82.0
21121;DHT22;12519;43.318;21.898;2023-07-31T22:32:31;25.1;82.0
21121;DHT22;12519;43.318;21.898;2023-07-31T22:37:08;25.1;82.0
21121;DHT22;12519;43.318;21.898;2023-07-31T22:41:45;25.2;82.0
21121;DHT22;12519;43.318;21.898;2023-07-31T22:46:21;25.2;82.0
21121;DHT22;12519;43.318;21.898;2023-07-31T22:50:59;25.2;82.0
21121;DHT22;12519;43.318;21.898;2023-07-31T22:55:35;25.2;82.0
21121;DHT22;12519;43.318;21.898;2023-07-31T23:00:13;25.1;82.0
21121;DHT22;12519;43.318;21.898;2023-07-31T23:04:52;25.1;82.0
21121;DHT22;12519;43.318;21.898;2023-07-31T23:09:29;25.0;82.0
21121;DHT22;12519;43.318;21.898;2023-07-31T23:14:06;25.0;82.0
21121;DHT22;12519;43.318;21.898;2023-07-31T23:18:42;25.0;82.0
21121;DHT22;12519;43.318;21.898;2023-07-31T23:23:19;25.0;82.0
21121;DHT22;12519;43.318;21.898;2023-07-31T23:27:56;24.3;83.0
21121;DHT22;12519;43.318;21.898;2023-07-31T23:32:32;24.3;83.0
21121;DHT22;12519;43.318;21.898;2023-07-31T23:37:09;24.3;83.0
21121;DHT22;12519;43.318;21.898;2023-07-31T23:41:46;23.6;84.0
21121;DHT22;12519;43.318;21.898;2023-07-31T23:46:22;23.6;84.0
21121;DHT22;12519;43.318;21.898;2023-07-31T23:50:59;23.2;85.0
21121;DHT22;12519;43.318;21.898;2023-07-31T23:55:37;23.2;85.0
